Triumph, Idaho
Current Conditions -  °F | °C
As of 7:47 AM on Monday 22 Dec 2014 (Local Time) from KSUN Reporting Station
Scattered Clouds Scattered Clouds  
Wind Chill: 28°   Ceiling: Unl
Heat Index: 28°   Visibility: 10mi
Dew Point: 27°   Wind: 0mph
Humidity: 93%   Direction: NA
Pressure: 29.97"   Gusts: NA
Location:  43.571°N, 114.16°W
Report Text: KSUN 221447Z 00000KT 10SM SCT060 SCT110 M02/M03 A2997
Loading
Personal Weather Stations






























Interactive Weather Map New forecast layout! Learn more

10-Day Weather Forecast

Advertisements
Track Severe Weather on mobile